Terminal Aerodrome Forecast
Issued by NWS

Home | Current Version | Previous Version | Graphics & Text | Print | Product List | Glossary On
Versions: 1 2 3 4 5 6 7 8 9 10 11 12 13 14 15 16 17
000
FTUS43 KMPX 240539
TAFRWF
TAF
KRWF 240539Z 2406/2506 11007KT P6SM BKN050 OVC080
     FM241200 13011KT P6SM VCSH OVC060
     FM241400 14013G19KT 6SM -SHRA OVC040
     FM241800 13016G23KT 6SM -DZ OVC025
     FM250200 12013KT 5SM BR OVC009=

USA.gov is the U.S. government's official web portal to all federal, state and local government web resources and services.